sensor_id;sensor_type;location;lat;lon;timestamp;pressure;altitude;pressure_sealevel;temperature;humidity
47815;BME280;33579;50.058;18.130;2023-03-21T00:00:23;99282.47;;;8.83;100.00
47815;BME280;33579;50.058;18.130;2023-03-21T00:01:24;99278.78;;;8.86;100.00
47815;BME280;33579;50.058;18.130;2023-03-21T00:02:26;99274.13;;;8.90;100.00
47815;BME280;33579;50.058;18.130;2023-03-21T00:03:28;99276.97;;;8.98;100.00
47815;BME280;33579;50.058;18.130;2023-03-21T00:04:30;99274.09;;;9.01;100.00
47815;BME280;33579;50.058;18.130;2023-03-21T00:05:45;99268.13;;;9.10;100.00
47815;BME280;33579;50.058;18.130;2023-03-21T00:06:46;99267.75;;;9.15;100.00
47815;BME280;33579;50.058;18.130;2023-03-21T00:07:48;99258.09;;;9.16;100.00
47815;BME280;33579;50.058;18.130;2023-03-21T00:08:50;99252.72;;;9.17;100.00
47815;BME280;33579;50.058;18.130;2023-03-21T00:09:52;99248.66;;;9.13;100.00
47815;BME280;33579;50.058;18.130;2023-03-21T00:11:04;99257.97;;;9.17;100.00
47815;BME280;33579;50.058;18.130;2023-03-21T00:12:06;99260.34;;;9.20;100.00
47815;BME280;33579;50.058;18.130;2023-03-21T00:13:08;99259.97;;;9.25;100.00
47815;BME280;33579;50.058;18.130;2023-03-21T00:14:09;99256.00;;;9.31;100.00
47815;BME280;33579;50.058;18.130;2023-03-21T00:15:11;99260.06;;;9.35;100.00
47815;BME280;33579;50.058;18.130;2023-03-21T00:16:16;99257.78;;;9.41;100.00
47815;BME280;33579;50.058;18.130;2023-03-21T00:17:38;99260.59;;;9.50;100.00
47815;BME280;33579;50.058;18.130;2023-03-21T00:18:45;99258.19;;;9.58;100.00
47815;BME280;33579;50.058;18.130;2023-03-21T00:19:47;99259.75;;;9.61;100.00
47815;BME280;33579;50.058;18.130;2023-03-21T00:20:59;99260.06;;;9.67;100.00
47815;BME280;33579;50.058;18.130;2023-03-21T00:22:21;99261.47;;;9.72;100.00
47815;BME280;33579;50.058;18.130;2023-03-21T00:23:24;99257.78;;;9.74;100.00
47815;BME280;33579;50.058;18.130;2023-03-21T00:24:26;99264.81;;;9.74;100.00
47815;BME280;33579;50.058;18.130;2023-03-21T00:25:28;99260.97;;;9.78;100.00
47815;BME280;33579;50.058;18.130;2023-03-21T00:26:29;99256.69;;;9.77;100.00
47815;BME280;33579;50.058;18.130;2023-03-21T00:27:31;99258.91;;;9.81;100.00
47815;BME280;33579;50.058;18.130;2023-03-21T00:28:55;99259.88;;;9.80;100.00
47815;BME280;33579;50.058;18.130;2023-03-21T00:29:56;99257.38;;;9.79;100.00
47815;BME280;33579;50.058;18.130;2023-03-21T00:30:59;99259.88;;;9.80;100.00
47815;BME280;33579;50.058;18.130;2023-03-21T00:32:00;99258.53;;;9.86;100.00
47815;BME280;33579;50.058;18.130;2023-03-21T00:33:02;99252.13;;;9.79;100.00
47815;BME280;33579;50.058;18.130;2023-03-21T00:34:22;99252.50;;;9.74;100.00
47815;BME280;33579;50.058;18.130;2023-03-21T00:35:43;99252.78;;;9.71;100.00
47815;BME280;33579;50.058;18.130;2023-03-21T00:37:03;99255.25;;;9.73;100.00
47815;BME280;33579;50.058;18.130;2023-03-21T00:38:04;99253.09;;;9.78;100.00
47815;BME280;33579;50.058;18.130;2023-03-21T00:39:07;99250.31;;;9.79;100.00
47815;BME280;33579;50.058;18.130;2023-03-21T00:40:09;99249.13;;;9.83;100.00
47815;BME280;33579;50.058;18.130;2023-03-21T00:41:20;99254.00;;;9.88;100.00
47815;BME280;33579;50.058;18.130;2023-03-21T00:42:41;99245.84;;;9.91;100.00
47815;BME280;33579;50.058;18.130;2023-03-21T00:43:43;99251.81;;;9.93;100.00
47815;BME280;33579;50.058;18.130;2023-03-21T00:44:45;99249.44;;;9.90;100.00
47815;BME280;33579;50.058;18.130;2023-03-21T00:45:46;99247.69;;;9.79;100.00
47815;BME280;33579;50.058;18.130;2023-03-21T00:46:51;99246.34;;;9.64;100.00
47815;BME280;33579;50.058;18.130;2023-03-21T00:48:08;99250.69;;;9.53;100.00
47815;BME280;33579;50.058;18.130;2023-03-21T00:49:10;99251.06;;;9.49;100.00
47815;BME280;33579;50.058;18.130;2023-03-21T00:50:11;99245.84;;;9.37;100.00
47815;BME280;33579;50.058;18.130;2023-03-21T00:51:18;99252.31;;;9.33;100.00
47815;BME280;33579;50.058;18.130;2023-03-21T00:52:20;99255.66;;;9.24;100.00
47815;BME280;33579;50.058;18.130;2023-03-21T00:53:38;99246.50;;;9.18;100.00
47815;BME280;33579;50.058;18.130;2023-03-21T00:54:40;99249.63;;;9.12;100.00
47815;BME280;33579;50.058;18.130;2023-03-21T00:55:42;99251.56;;;9.10;100.00
47815;BME280;33579;50.058;18.130;2023-03-21T00:56:44;99248.59;;;9.03;100.00
47815;BME280;33579;50.058;18.130;2023-03-21T00:57:45;99248.09;;;8.98;100.00
47815;BME280;33579;50.058;18.130;2023-03-21T00:58:58;99248.38;;;8.83;100.00
47815;BME280;33579;50.058;18.130;2023-03-21T00:59:59;99247.75;;;8.80;100.00
47815;BME280;33579;50.058;18.130;2023-03-21T01:01:01;99247.78;;;8.68;100.00
47815;BME280;33579;50.058;18.130;2023-03-21T01:02:03;99246.72;;;8.71;100.00
47815;BME280;33579;50.058;18.130;2023-03-21T01:03:07;99248.97;;;8.76;100.00
47815;BME280;33579;50.058;18.130;2023-03-21T01:04:26;99253.38;;;8.75;100.00
47815;BME280;33579;50.058;18.130;2023-03-21T01:05:29;99253.38;;;8.75;100.00
47815;BME280;33579;50.058;18.130;2023-03-21T01:06:31;99243.28;;;8.70;100.00
47815;BME280;33579;50.058;18.130;2023-03-21T01:07:35;99250.03;;;8.73;100.00
47815;BME280;33579;50.058;18.130;2023-03-21T01:08:41;99244.09;;;8.71;100.00
47815;BME280;33579;50.058;18.130;2023-03-21T01:09:58;99249.09;;;8.74;100.00
47815;BME280;33579;50.058;18.130;2023-03-21T01:11:03;99245.16;;;8.68;100.00
47815;BME280;33579;50.058;18.130;2023-03-21T01:12:06;99241.09;;;8.64;100.00
47815;BME280;33579;50.058;18.130;2023-03-21T01:13:11;99237.88;;;8.61;100.00
47815;BME280;33579;50.058;18.130;2023-03-21T01:14:15;99244.19;;;8.58;100.00
47815;BME280;33579;50.058;18.130;2023-03-21T01:15:24;99242.31;;;8.60;100.00
47815;BME280;33579;50.058;18.130;2023-03-21T01:16:26;99234.44;;;8.60;100.00
47815;BME280;33579;50.058;18.130;2023-03-21T01:17:27;99243.84;;;8.63;100.00
47815;BME280;33579;50.058;18.130;2023-03-21T01:18:30;99242.78;;;8.65;100.00
47815;BME280;33579;50.058;18.130;2023-03-21T01:19:32;99243.63;;;8.66;100.00
47815;BME280;33579;50.058;18.130;2023-03-21T01:20:53;99240.88;;;8.67;100.00
47815;BME280;33579;50.058;18.130;2023-03-21T01:21:55;99231.69;;;8.62;100.00
47815;BME280;33579;50.058;18.130;2023-03-21T01:22:58;99232.66;;;8.61;100.00
47815;BME280;33579;50.058;18.130;2023-03-21T01:24:00;99235.16;;;8.62;100.00
47815;BME280;33579;50.058;18.130;2023-03-21T01:25:01;99225.84;;;8.58;100.00
47815;BME280;33579;50.058;18.130;2023-03-21T01:26:22;99233.13;;;8.54;100.00
47815;BME280;33579;50.058;18.130;2023-03-21T01:27:24;99229.06;;;8.50;100.00
47815;BME280;33579;50.058;18.130;2023-03-21T01:28:27;99229.66;;;8.54;100.00
47815;BME280;33579;50.058;18.130;2023-03-21T01:29:29;99229.31;;;8.58;100.00
47815;BME280;33579;50.058;18.130;2023-03-21T01:30:31;99225.03;;;8.57;100.00
47815;BME280;33579;50.058;18.130;2023-03-21T01:31:41;99227.66;;;8.57;100.00
47815;BME280;33579;50.058;18.130;2023-03-21T01:32:43;99221.31;;;8.49;100.00
47815;BME280;33579;50.058;18.130;2023-03-21T01:33:45;99229.16;;;8.49;100.00
47815;BME280;33579;50.058;18.130;2023-03-21T01:34:49;99237.41;;;8.44;100.00
47815;BME280;33579;50.058;18.130;2023-03-21T01:35:51;99227.50;;;8.48;100.00
47815;BME280;33579;50.058;18.130;2023-03-21T01:37:06;99225.69;;;8.48;100.00
47815;BME280;33579;50.058;18.130;2023-03-21T01:38:16;99225.69;;;8.48;100.00
47815;BME280;33579;50.058;18.130;2023-03-21T01:39:18;99227.38;;;8.49;100.00
47815;BME280;33579;50.058;18.130;2023-03-21T01:40:24;99227.03;;;8.54;100.00
47815;BME280;33579;50.058;18.130;2023-03-21T01:41:37;99226.56;;;8.49;100.00
47815;BME280;33579;50.058;18.130;2023-03-21T01:43:32;99231.19;;;8.45;100.00
47815;BME280;33579;50.058;18.130;2023-03-21T01:48:10;99230.25;;;8.46;100.00
47815;BME280;33579;50.058;18.130;2023-03-21T01:49:25;99229.06;;;8.50;100.00
47815;BME280;33579;50.058;18.130;2023-03-21T01:50:38;99229.91;;;8.51;100.00
47815;BME280;33579;50.058;18.130;2023-03-21T01:52:17;99219.06;;;8.55;100.00
47815;BME280;33579;50.058;18.130;2023-03-21T01:53:38;99219.19;;;8.65;100.00
47815;BME280;33579;50.058;18.130;2023-03-21T01:54:43;99231.81;;;8.71;100.00
47815;BME280;33579;50.058;18.130;2023-03-21T01:55:46;99223.56;;;8.76;100.00
47815;BME280;33579;50.058;18.130;2023-03-21T01:57:21;99224.28;;;8.90;100.00
47815;BME280;33579;50.058;18.130;2023-03-21T01:58:34;99223.88;;;8.94;100.00
47815;BME280;33579;50.058;18.130;2023-03-21T01:59:47;99226.16;;;8.99;100.00
47815;BME280;33579;50.058;18.130;2023-03-21T02:01:29;99225.66;;;9.05;100.00
47815;BME280;33579;50.058;18.130;2023-03-21T02:02:31;99226.38;;;9.07;100.00
47815;BME280;33579;50.058;18.130;2023-03-21T02:03:45;99219.91;;;9.11;100.00
47815;BME280;33579;50.058;18.130;2023-03-21T02:04:54;99218.94;;;9.12;100.00
47815;BME280;33579;50.058;18.130;2023-03-21T02:06:04;99222.44;;;9.13;100.00
47815;BME280;33579;50.058;18.130;2023-03-21T02:07:14;99219.69;;;9.14;100.00
47815;BME280;33579;50.058;18.130;2023-03-21T02:08:23;99222.53;;;9.11;100.00
47815;BME280;33579;50.058;18.130;2023-03-21T02:09:46;99221.25;;;9.06;100.00
47815;BME280;33579;50.058;18.130;2023-03-21T02:10:52;99221.59;;;9.01;100.00
47815;BME280;33579;50.058;18.130;2023-03-21T02:12:07;99219.75;;;8.92;100.00
47815;BME280;33579;50.058;18.130;2023-03-21T02:13:08;99217.84;;;8.82;100.00
47815;BME280;33579;50.058;18.130;2023-03-21T02:14:15;99217.00;;;8.82;100.00
47815;BME280;33579;50.058;18.130;2023-03-21T02:15:41;99218.91;;;8.80;100.00
47815;BME280;33579;50.058;18.130;2023-03-21T02:20:33;99224.91;;;8.59;100.00
47815;BME280;33579;50.058;18.130;2023-03-21T02:27:51;99222.38;;;8.46;100.00
47815;BME280;33579;50.058;18.130;2023-03-21T02:30:38;99226.91;;;8.44;100.00
47815;BME280;33579;50.058;18.130;2023-03-21T02:36:15;99225.00;;;8.69;100.00
47815;BME280;33579;50.058;18.130;2023-03-21T02:38:46;99218.56;;;8.62;100.00
47815;BME280;33579;50.058;18.130;2023-03-21T02:40:04;99215.84;;;8.63;100.00
47815;BME280;33579;50.058;18.130;2023-03-21T02:41:42;99226.69;;;8.70;100.00
47815;BME280;33579;50.058;18.130;2023-03-21T02:44:11;99228.47;;;8.69;100.00
47815;BME280;33579;50.058;18.130;2023-03-21T02:45:19;99224.16;;;8.68;100.00
47815;BME280;33579;50.058;18.130;2023-03-21T02:46:45;99229.78;;;8.64;100.00
47815;BME280;33579;50.058;18.130;2023-03-21T02:48:09;99217.63;;;8.63;100.00
47815;BME280;33579;50.058;18.130;2023-03-21T02:50:59;99217.59;;;8.74;100.00
47815;BME280;33579;50.058;18.130;2023-03-21T02:52:04;99220.38;;;8.73;100.00
47815;BME280;33579;50.058;18.130;2023-03-21T02:53:24;99220.59;;;8.69;100.00
47815;BME280;33579;50.058;18.130;2023-03-21T02:54:31;99220.59;;;8.69;100.00
47815;BME280;33579;50.058;18.130;2023-03-21T02:55:50;99212.50;;;8.73;100.00
47815;BME280;33579;50.058;18.130;2023-03-21T02:56:55;99213.81;;;8.78;100.00
47815;BME280;33579;50.058;18.130;2023-03-21T02:57:59;99214.97;;;8.85;100.00
47815;BME280;33579;50.058;18.130;2023-03-21T02:59:18;99216.53;;;8.88;100.00
47815;BME280;33579;50.058;18.130;2023-03-21T03:00:24;99220.81;;;8.89;100.00
47815;BME280;33579;50.058;18.130;2023-03-21T03:01:26;99216.97;;;8.93;100.00
47815;BME280;33579;50.058;18.130;2023-03-21T03:02:28;99222.72;;;8.98;100.00
47815;BME280;33579;50.058;18.130;2023-03-21T03:03:30;99208.75;;;8.98;100.00
47815;BME280;33579;50.058;18.130;2023-03-21T03:04:37;99214.47;;;9.03;100.00
47815;BME280;33579;50.058;18.130;2023-03-21T03:05:48;99210.75;;;9.06;100.00
47815;BME280;33579;50.058;18.130;2023-03-21T03:07:07;99208.84;;;9.08;100.00
47815;BME280;33579;50.058;18.130;2023-03-21T03:10:24;99210.75;;;9.06;100.00
47815;BME280;33579;50.058;18.130;2023-03-21T03:11:37;99219.75;;;8.92;100.00
47815;BME280;33579;50.058;18.130;2023-03-21T03:12:53;99211.28;;;8.88;100.00
47815;BME280;33579;50.058;18.130;2023-03-21T03:18:18;99214.53;;;8.69;100.00
47815;BME280;33579;50.058;18.130;2023-03-21T03:19:26;99220.59;;;8.69;100.00
47815;BME280;33579;50.058;18.130;2023-03-21T03:20:37;99218.81;;;8.70;100.00
47815;BME280;33579;50.058;18.130;2023-03-21T03:21:59;99217.84;;;8.71;100.00
47815;BME280;33579;50.058;18.130;2023-03-21T03:23:34;99216.66;;;8.75;100.00
47815;BME280;33579;50.058;18.130;2023-03-21T03:26:08;99216.06;;;8.83;100.00
47815;BME280;33579;50.058;18.130;2023-03-21T03:27:16;99209.25;;;8.80;100.00
47815;BME280;33579;50.058;18.130;2023-03-21T03:28:25;99214.28;;;8.72;100.00
47815;BME280;33579;50.058;18.130;2023-03-21T03:29:30;99212.50;;;8.73;100.00
47815;BME280;33579;50.058;18.130;2023-03-21T03:30:36;99206.41;;;8.72;100.00
47815;BME280;33579;50.058;18.130;2023-03-21T03:32:00;99213.31;;;8.73;100.00
47815;BME280;33579;50.058;18.130;2023-03-21T03:33:07;99217.16;;;8.69;100.00
47815;BME280;33579;50.058;18.130;2023-03-21T03:34:22;99212.25;;;8.64;100.00
47815;BME280;33579;50.058;18.130;2023-03-21T03:35:28;99214.28;;;8.61;100.00
47815;BME280;33579;50.058;18.130;2023-03-21T03:36:34;99208.59;;;8.55;100.00
47815;BME280;33579;50.058;18.130;2023-03-21T03:37:47;99208.19;;;8.49;100.00
47815;BME280;33579;50.058;18.130;2023-03-21T03:38:51;99204.13;;;8.44;100.00
47815;BME280;33579;50.058;18.130;2023-03-21T03:40:01;99205.56;;;8.37;100.00
47815;BME280;33579;50.058;18.130;2023-03-21T03:41:27;99205.81;;;8.34;100.00
47815;BME280;33579;50.058;18.130;2023-03-21T03:42:38;99200.69;;;8.33;100.00
47815;BME280;33579;50.058;18.130;2023-03-21T03:43:55;99199.72;;;8.34;100.00
47815;BME280;33579;50.058;18.130;2023-03-21T03:45:01;99199.03;;;8.32;100.00
47815;BME280;33579;50.058;18.130;2023-03-21T03:46:09;99205.56;;;8.37;100.00
47815;BME280;33579;50.058;18.130;2023-03-21T03:47:23;99206.03;;;8.42;100.00
47815;BME280;33579;50.058;18.130;2023-03-21T03:48:43;99202.94;;;8.37;100.00
47815;BME280;33579;50.058;18.130;2023-03-21T03:51:25;99209.97;;;8.37;100.00
47815;BME280;33579;50.058;18.130;2023-03-21T03:52:48;99203.16;;;8.46;100.00
47815;BME280;33579;50.058;18.130;2023-03-21T03:54:04;99199.16;;;8.53;100.00
47815;BME280;33579;50.058;18.130;2023-03-21T03:55:15;99207.63;;;8.56;100.00
47815;BME280;33579;50.058;18.130;2023-03-21T03:56:19;99203.94;;;8.59;100.00
47815;BME280;33579;50.058;18.130;2023-03-21T03:57:24;99199.25;;;8.51;100.00
47815;BME280;33579;50.058;18.130;2023-03-21T03:58:26;99208.81;;;8.52;100.00
47815;BME280;33579;50.058;18.130;2023-03-21T03:59:45;99208.09;;;8.50;100.00
47815;BME280;33579;50.058;18.130;2023-03-21T04:00:54;99204.72;;;8.48;100.00
47815;BME280;33579;50.058;18.130;2023-03-21T04:01:56;99204.97;;;8.45;100.00
47815;BME280;33579;50.058;18.130;2023-03-21T04:02:58;99200.19;;;8.39;100.00
47815;BME280;33579;50.058;18.130;2023-03-21T04:04:00;99205.81;;;8.34;100.00
47815;BME280;33579;50.058;18.130;2023-03-21T04:05:14;99212.94;;;8.32;100.00
47815;BME280;33579;50.058;18.130;2023-03-21T04:06:17;99206.63;;;8.35;100.00
47815;BME280;33579;50.058;18.130;2023-03-21T04:07:20;99216.41;;;8.33;100.00
47815;BME280;33579;50.058;18.130;2023-03-21T04:08:24;99203.31;;;8.33;100.00
47815;BME280;33579;50.058;18.130;2023-03-21T04:09:29;99209.00;;;8.38;100.00
47815;BME280;33579;50.058;18.130;2023-03-21T04:10:46;99203.16;;;8.46;100.00
47815;BME280;33579;50.058;18.130;2023-03-21T04:11:48;99204.28;;;8.54;100.00
47815;BME280;33579;50.058;18.130;2023-03-21T04:12:49;99205.72;;;8.58;100.00
47815;BME280;33579;50.058;18.130;2023-03-21T04:13:57;99207.38;;;8.60;100.00
47815;BME280;33579;50.058;18.130;2023-03-21T04:14:58;99206.31;;;8.62;100.00
47815;BME280;33579;50.058;18.130;2023-03-21T04:16:12;99210.34;;;8.66;100.00
47815;BME280;33579;50.058;18.130;2023-03-21T04:17:16;99213.47;;;8.71;100.00
47815;BME280;33579;50.058;18.130;2023-03-21T04:18:18;99211.53;;;8.74;100.00
47815;BME280;33579;50.058;18.130;2023-03-21T04:19:20;99214.88;;;8.76;100.00
47815;BME280;33579;50.058;18.130;2023-03-21T04:20:22;99208.56;;;8.78;100.00
47815;BME280;33579;50.058;18.130;2023-03-21T04:21:38;99214.63;;;8.79;100.00
47815;BME280;33579;50.058;18.130;2023-03-21T04:22:39;99210.44;;;8.76;100.00
47815;BME280;33579;50.058;18.130;2023-03-21T04:23:41;99210.44;;;8.76;100.00
47815;BME280;33579;50.058;18.130;2023-03-21T04:24:43;99213.66;;;8.80;100.00
47815;BME280;33579;50.058;18.130;2023-03-21T04:25:45;99210.44;;;8.88;100.00
47815;BME280;33579;50.058;18.130;2023-03-21T04:27:00;99213.06;;;8.88;100.00
47815;BME280;33579;50.058;18.130;2023-03-21T04:28:11;99203.31;;;8.78;100.00
47815;BME280;33579;50.058;18.130;2023-03-21T04:29:20;99210.22;;;8.79;100.00
47815;BME280;33579;50.058;18.130;2023-03-21T04:30:44;99204.72;;;8.82;100.00
47815;BME280;33579;50.058;18.130;2023-03-21T04:32:01;99209.97;;;8.82;100.00
47815;BME280;33579;50.058;18.130;2023-03-21T04:33:03;99203.16;;;8.80;100.00
47815;BME280;33579;50.058;18.130;2023-03-21T04:34:07;99205.19;;;8.76;100.00
47815;BME280;33579;50.058;18.130;2023-03-21T04:35:10;99207.25;;;8.73;100.00
47815;BME280;33579;50.058;18.130;2023-03-21T04:36:12;99201.66;;;8.66;100.00
47815;BME280;33579;50.058;18.130;2023-03-21T04:37:17;99202.63;;;8.65;100.00
47815;BME280;33579;50.058;18.130;2023-03-21T04:38:20;99201.53;;;8.67;100.00
47815;BME280;33579;50.058;18.130;2023-03-21T04:39:21;99205.34;;;8.75;100.00
47815;BME280;33579;50.058;18.130;2023-03-21T04:40:23;99199.25;;;8.74;100.00
47815;BME280;33579;50.058;18.130;2023-03-21T04:41:29;99207.59;;;8.79;100.00
47815;BME280;33579;50.058;18.130;2023-03-21T04:42:31;99199.25;;;8.74;100.00
47815;BME280;33579;50.058;18.130;2023-03-21T04:43:33;99197.31;;;8.76;100.00
47815;BME280;33579;50.058;18.130;2023-03-21T04:44:34;99203.41;;;8.77;100.00
47815;BME280;33579;50.058;18.130;2023-03-21T04:45:36;99204.28;;;8.77;100.00
47815;BME280;33579;50.058;18.130;2023-03-21T04:46:38;99198.19;;;8.77;100.00
47815;BME280;33579;50.058;18.130;2023-03-21T04:47:41;99199.25;;;8.74;100.00
47815;BME280;33579;50.058;18.130;2023-03-21T04:48:42;99199.38;;;8.73;100.00
47815;BME280;33579;50.058;18.130;2023-03-21T04:49:45;99205.44;;;8.73;100.00
47815;BME280;33579;50.058;18.130;2023-03-21T04:50:47;99194.84;;;8.75;100.00
47815;BME280;33579;50.058;18.130;2023-03-21T04:51:48;99193.06;;;8.64;100.00
47815;BME280;33579;50.058;18.130;2023-03-21T04:52:53;99201.88;;;8.63;100.00
47815;BME280;33579;50.058;18.130;2023-03-21T04:53:54;99197.38;;;8.65;100.00
47815;BME280;33579;50.058;18.130;2023-03-21T04:54:56;99201.41;;;8.57;100.00
47815;BME280;33579;50.058;18.130;2023-03-21T04:55:57;99193.63;;;8.44;100.00
47815;BME280;33579;50.058;18.130;2023-03-21T04:56:59;99197.22;;;8.32;100.00
47815;BME280;33579;50.058;18.130;2023-03-21T04:58:03;99208.31;;;8.24;100.00
47815;BME280;33579;50.058;18.130;2023-03-21T04:59:10;99201.28;;;8.25;100.00
47815;BME280;33579;50.058;18.130;2023-03-21T05:00:12;99205.91;;;8.21;100.00
47815;BME280;33579;50.058;18.130;2023-03-21T05:01:14;99203.53;;;8.07;100.00
47815;BME280;33579;50.058;18.130;2023-03-21T05:02:16;99205.31;;;8.06;100.00
47815;BME280;33579;50.058;18.130;2023-03-21T05:03:18;99207.94;;;8.06;100.00
47815;BME280;33579;50.058;18.130;2023-03-21T05:04:19;99197.34;;;8.08;100.00
47815;BME280;33579;50.058;18.130;2023-03-21T05:05:21;99200.91;;;8.07;100.00
47815;BME280;33579;50.058;18.130;2023-03-21T05:06:25;99195.53;;;8.08;100.00
47815;BME280;33579;50.058;18.130;2023-03-21T05:07:27;99195.19;;;8.13;100.00
47815;BME280;33579;50.058;18.130;2023-03-21T05:08:29;99195.09;;;8.14;100.00
47815;BME280;33579;50.058;18.130;2023-03-21T05:09:31;99195.09;;;8.14;100.00
47815;BME280;33579;50.058;18.130;2023-03-21T05:10:32;99195.69;;;8.07;100.00
47815;BME280;33579;50.058;18.130;2023-03-21T05:11:37;99194.72;;;8.08;100.00
47815;BME280;33579;50.058;18.130;2023-03-21T05:12:39;99193.41;;;8.02;100.00
47815;BME280;33579;50.058;18.130;2023-03-21T05:13:41;99196.03;;;8.02;100.00
47815;BME280;33579;50.058;18.130;2023-03-21T05:14:42;99193.28;;;8.04;100.00
47815;BME280;33579;50.058;18.130;2023-03-21T05:15:44;99184.59;;;8.03;100.00
47815;BME280;33579;50.058;18.130;2023-03-21T05:16:46;99198.53;;;8.15;100.00
47815;BME280;33579;50.058;18.130;2023-03-21T05:17:49;99204.00;;;8.12;100.00
47815;BME280;33579;50.058;18.130;2023-03-21T05:18:52;99194.72;;;8.08;100.00
47815;BME280;33579;50.058;18.130;2023-03-21T05:19:54;99198.91;;;8.10;100.00
47815;BME280;33579;50.058;18.130;2023-03-21T05:20:56;99202.47;;;8.09;100.00
47815;BME280;33579;50.058;18.130;2023-03-21T05:21:57;99209.84;;;8.15;100.00
47815;BME280;33579;50.058;18.130;2023-03-21T05:23:01;99203.66;;;8.16;100.00
47815;BME280;33579;50.058;18.130;2023-03-21T05:24:02;99200.78;;;8.20;100.00
47815;BME280;33579;50.058;18.130;2023-03-21T05:25:07;99193.66;;;8.22;100.00
47815;BME280;33579;50.058;18.130;2023-03-21T05:26:29;99193.53;;;8.23;100.00
47815;BME280;33579;50.058;18.130;2023-03-21T05:27:40;99201.66;;;8.32;100.00
47815;BME280;33579;50.058;18.130;2023-03-21T05:28:44;99196.75;;;8.38;100.00
47815;BME280;33579;50.058;18.130;2023-03-21T05:29:45;99196.41;;;8.43;100.00
47815;BME280;33579;50.058;18.130;2023-03-21T05:30:47;99190.66;;;8.49;100.00
47815;BME280;33579;50.058;18.130;2023-03-21T05:31:49;99196.44;;;8.54;100.00
47815;BME280;33579;50.058;18.130;2023-03-21T05:32:51;99202.25;;;8.58;100.00
47815;BME280;33579;50.058;18.130;2023-03-21T05:33:53;99199.41;;;8.61;100.00
47815;BME280;33579;50.058;18.130;2023-03-21T05:34:55;99201.16;;;8.61;100.00
47815;BME280;33579;50.058;18.130;2023-03-21T05:35:57;99202.72;;;8.63;100.00
47815;BME280;33579;50.058;18.130;2023-03-21T05:37:03;99204.28;;;8.66;100.00
47815;BME280;33579;50.058;18.130;2023-03-21T05:38:20;99211.66;;;8.72;100.00
47815;BME280;33579;50.058;18.130;2023-03-21T05:39:25;99199.94;;;8.76;100.00
47815;BME280;33579;50.058;18.130;2023-03-21T05:40:45;99206.66;;;8.80;100.00
47815;BME280;33579;50.058;18.130;2023-03-21T05:41:47;99198.63;;;8.82;100.00
47815;BME280;33579;50.058;18.130;2023-03-21T05:42:49;99208.75;;;8.86;100.00
47815;BME280;33579;50.058;18.130;2023-03-21T05:43:55;99204.09;;;8.90;100.00
47815;BME280;33579;50.058;18.130;2023-03-21T05:44:56;99205.06;;;8.89;100.00
47815;BME280;33579;50.058;18.130;2023-03-21T05:46:03;99206.03;;;8.88;100.00
47815;BME280;33579;50.058;18.130;2023-03-21T05:47:05;99209.47;;;8.89;100.00
47815;BME280;33579;50.058;18.130;2023-03-21T05:48:15;99202.34;;;8.91;100.00
47815;BME280;33579;50.058;18.130;2023-03-21T05:49:39;99208.16;;;8.94;100.00
47815;BME280;33579;50.058;18.130;2023-03-21T05:50:41;99210.66;;;8.96;100.00
47815;BME280;33579;50.058;18.130;2023-03-21T05:51:51;99210.53;;;8.97;100.00
47815;BME280;33579;50.058;18.130;2023-03-21T05:52:52;99215.31;;;8.92;100.00
47815;BME280;33579;50.058;18.130;2023-03-21T05:53:54;99212.09;;;8.89;100.00
47815;BME280;33579;50.058;18.130;2023-03-21T05:54:55;99212.69;;;8.92;100.00
47815;BME280;33579;50.058;18.130;2023-03-21T05:55:58;99219.16;;;8.88;100.00
47815;BME280;33579;50.058;18.130;2023-03-21T05:57:14;99217.72;;;8.84;100.00
47815;BME280;33579;50.058;18.130;2023-03-21T05:58:36;99221.66;;;8.90;100.00
47815;BME280;33579;50.058;18.130;2023-03-21T05:59:38;99222.47;;;8.90;100.00
47815;BME280;33579;50.058;18.130;2023-03-21T06:00:40;99216.41;;;8.90;100.00
47815;BME280;33579;50.058;18.130;2023-03-21T06:01:53;99222.81;;;8.97;100.00
47815;BME280;33579;50.058;18.130;2023-03-21T06:02:55;99216.75;;;8.96;100.00
47815;BME280;33579;50.058;18.130;2023-03-21T06:04:26;99226.91;;;8.90;100.00
47815;BME280;33579;50.058;18.130;2023-03-21T06:05:28;99237.41;;;8.90;100.00
47815;BME280;33579;50.058;18.130;2023-03-21T06:06:29;99240.25;;;8.86;100.00
47815;BME280;33579;50.058;18.130;2023-03-21T06:07:35;99249.22;;;8.84;100.00
47815;BME280;33579;50.058;18.130;2023-03-21T06:08:37;99244.94;;;8.71;100.00
47815;BME280;33579;50.058;18.130;2023-03-21T06:09:39;99242.78;;;8.65;100.00
47815;BME280;33579;50.058;18.130;2023-03-21T06:10:41;99243.38;;;8.57;100.00
47815;BME280;33579;50.058;18.130;2023-03-21T06:11:46;99236.94;;;8.50;100.00
47815;BME280;33579;50.058;18.130;2023-03-21T06:13:06;99242.50;;;8.46;100.00
47815;BME280;33579;50.058;18.130;2023-03-21T06:14:08;99239.06;;;8.45;100.00
47815;BME280;33579;50.058;18.130;2023-03-21T06:15:11;99241.78;;;8.43;100.00
47815;BME280;33579;50.058;18.130;2023-03-21T06:16:33;99239.56;;;8.50;100.00
47815;BME280;33579;50.058;18.130;2023-03-21T06:17:34;99243.63;;;8.54;100.00
47815;BME280;33579;50.058;18.130;2023-03-21T06:18:40;99242.19;;;8.50;100.00
47815;BME280;33579;50.058;18.130;2023-03-21T06:20:07;99239.91;;;8.57;100.00
47815;BME280;33579;50.058;18.130;2023-03-21T06:21:14;99247.22;;;8.53;100.00
47815;BME280;33579;50.058;18.130;2023-03-21T06:22:16;99251.25;;;8.57;100.00
47815;BME280;33579;50.058;18.130;2023-03-21T06:23:17;99238.84;;;8.60;100.00
47815;BME280;33579;50.058;18.130;2023-03-21T06:24:20;99242.31;;;8.60;100.00
47815;BME280;33579;50.058;18.130;2023-03-21T06:25:22;99247.41;;;8.62;100.00
47815;BME280;33579;50.058;18.130;2023-03-21T06:26:24;99242.06;;;8.63;100.00